Gloster, Louisiana
Current Conditions -  °F | °C
As of 2:56 PM on Monday 22 Dec 2014 (Local Time) from KSHV Reporting Station
Broken Clouds Broken Clouds  
Wind Chill: 68°   Ceiling: 3000
Heat Index: 68°   Visibility: 10mi
Dew Point: 56°   Wind: 17mph
Humidity: 65%   Direction: 190°S
Pressure: 29.53"   Gusts: 24mph
Location:  32.19°N, 93.81°W
Report Text: KSHV 222056Z 19015G21KT 10SM FEW023 BKN030 20/13 A2953 RMK AO2 SLP999 T02000133 56036
Loading
Personal Weather Stations






























Interactive Weather Map New forecast layout! Learn more

10-Day Weather Forecast

Advertisements
Track Severe Weather on mobile